createdAt,value
2019-05-12T00:02:03.880Z,6.33
2019-05-12T00:04:38.525Z,6.37
2019-05-12T00:07:10.871Z,5.60
2019-05-12T00:09:43.560Z,11.00
2019-05-12T00:12:18.398Z,14.33
2019-05-12T00:14:51.390Z,9.83
2019-05-12T00:17:24.040Z,5.83
2019-05-12T00:19:58.368Z,5.93
2019-05-12T00:22:32.481Z,5.63
2019-05-12T00:25:08.764Z,5.53
2019-05-12T00:27:41.525Z,5.33
2019-05-12T00:30:34.299Z,5.50
2019-05-12T00:33:09.335Z,10.23
2019-05-12T00:35:41.613Z,13.17
2019-05-12T00:38:14.250Z,10.00
2019-05-12T00:40:48.022Z,5.90
2019-05-12T00:43:21.038Z,6.07
2019-05-12T00:45:53.295Z,5.17
2019-05-12T00:48:28.252Z,5.53
2019-05-12T00:51:00.411Z,5.07
2019-05-12T00:53:39.686Z,5.00
2019-05-12T00:56:08.513Z,5.43
2019-05-12T00:58:41.314Z,11.40
2019-05-12T01:01:13.997Z,19.50
2019-05-12T01:03:48.365Z,5.37
2019-05-12T01:06:21.401Z,5.67
2019-05-12T01:08:54.183Z,5.60
2019-05-12T01:11:28.514Z,4.40
2019-05-12T01:14:01.383Z,4.97
2019-05-12T01:16:34.407Z,5.37
2019-05-12T01:19:08.504Z,5.57
2019-05-12T01:21:41.349Z,9.30
2019-05-12T01:24:14.475Z,23.20
2019-05-12T01:26:47.688Z,9.73
2019-05-12T01:29:21.255Z,4.90
2019-05-12T01:31:58.562Z,5.30
2019-05-12T01:34:32.344Z,4.77
2019-05-12T01:37:22.634Z,4.50
2019-05-12T01:39:59.705Z,4.37
2019-05-12T01:42:32.299Z,3.90
2019-05-12T01:45:06.003Z,4.40
2019-05-12T01:47:38.682Z,7.73
2019-05-12T01:50:12.991Z,22.97
2019-05-12T01:52:47.723Z,4.10
2019-05-12T01:55:19.616Z,4.33
2019-05-12T01:57:53.594Z,4.30
2019-05-12T02:00:28.675Z,4.20
2019-05-12T02:03:01.719Z,4.23
2019-05-12T02:05:37.953Z,4.10
2019-05-12T02:08:11.469Z,3.50
2019-05-12T02:10:44.153Z,4.80
2019-05-12T02:13:18.272Z,7.80
2019-05-12T02:15:51.056Z,19.20
2019-05-12T02:18:23.728Z,4.60
2019-05-12T02:20:57.736Z,4.33
2019-05-12T02:23:30.692Z,3.63
2019-05-12T02:26:03.606Z,3.73
2019-05-12T02:28:36.281Z,4.40
2019-05-12T02:31:09.554Z,3.67
2019-05-12T02:33:44.600Z,4.17
2019-05-12T02:36:16.880Z,3.83
2019-05-12T02:38:49.236Z,6.17
2019-05-12T02:41:22.133Z,7.53
2019-05-12T02:43:56.461Z,4.13
2019-05-12T02:46:29.136Z,4.30
2019-05-12T02:49:04.853Z,4.27
2019-05-12T02:51:36.951Z,4.80
2019-05-12T02:54:09.998Z,4.57
2019-05-12T02:56:44.928Z,3.80
2019-05-12T02:59:19.096Z,4.67
2019-05-12T03:01:55.096Z,4.70
2019-05-12T03:04:27.761Z,6.60
2019-05-12T03:07:06.673Z,8.37
2019-05-12T03:09:44.533Z,4.83
2019-05-12T03:12:15.785Z,4.67
2019-05-12T03:14:48.366Z,4.40
2019-05-12T03:17:21.066Z,4.43
2019-05-12T03:19:55.653Z,4.53
2019-05-12T03:22:28.553Z,4.13
2019-05-12T03:25:11.347Z,4.53
2019-05-12T03:27:36.476Z,4.93
2019-05-12T03:30:11.315Z,5.40
2019-05-12T03:32:47.164Z,6.53
2019-05-12T03:35:18.501Z,4.20
2019-05-12T03:37:51.393Z,4.40
2019-05-12T03:40:24.919Z,4.57
2019-05-12T03:42:57.661Z,4.60
2019-05-12T03:45:30.249Z,4.00
2019-05-12T03:48:04.319Z,3.67
2019-05-12T03:50:36.958Z,4.57
2019-05-12T03:53:11.081Z,4.80
2019-05-12T03:55:47.011Z,8.23
2019-05-12T03:58:17.288Z,4.37
2019-05-12T04:00:49.913Z,4.57
2019-05-12T04:03:24.682Z,4.30
2019-05-12T04:05:56.590Z,4.80
2019-05-12T04:08:29.266Z,4.43
2019-05-12T04:11:05.026Z,3.90
2019-05-12T04:13:36.274Z,4.47
2019-05-12T04:16:08.486Z,4.60
2019-05-12T04:18:44.731Z,4.03
2019-05-12T04:21:15.843Z,5.27
2019-05-12T04:23:48.827Z,4.83
2019-05-12T04:26:25.043Z,4.20
2019-05-12T04:28:57.470Z,5.03
2019-05-12T04:31:30.153Z,4.00
2019-05-12T04:34:05.118Z,4.27
2019-05-12T04:36:37.849Z,3.77
2019-05-12T04:39:10.733Z,4.77
2019-05-12T04:41:44.667Z,4.77
2019-05-12T04:44:17.647Z,4.10
2019-05-12T04:46:50.267Z,7.37
2019-05-12T04:49:24.968Z,4.23
2019-05-12T04:51:58.851Z,4.20
2019-05-12T04:54:35.347Z,4.50
2019-05-12T04:57:06.292Z,4.00
2019-05-12T04:59:38.924Z,3.47
2019-05-12T05:02:11.616Z,3.37
2019-05-12T05:04:45.515Z,4.17
2019-05-12T05:07:18.091Z,3.20
2019-05-12T05:09:50.778Z,3.83
2019-05-12T05:12:24.010Z,5.43
2019-05-12T05:14:56.750Z,3.73
2019-05-12T05:17:29.329Z,4.10
2019-05-12T05:20:04.040Z,3.87
2019-05-12T05:22:38.039Z,3.83
2019-05-12T05:25:10.712Z,3.87
2019-05-12T05:27:44.398Z,3.43
2019-05-12T05:30:17.427Z,3.97
2019-05-12T05:32:50.113Z,3.40
2019-05-12T05:35:23.888Z,3.73
2019-05-12T05:37:56.597Z,4.10
2019-05-12T05:40:30.392Z,4.87
2019-05-12T05:43:12.261Z,3.87
2019-05-12T05:45:37.603Z,3.70
2019-05-12T05:48:10.679Z,3.73
2019-05-12T05:50:43.923Z,3.83
2019-05-12T05:53:19.536Z,3.50
2019-05-12T05:55:58.628Z,3.50
2019-05-12T05:58:26.206Z,3.60
2019-05-12T06:01:05.932Z,3.57
2019-05-12T06:03:33.845Z,3.60
2019-05-12T06:06:12.229Z,3.50
2019-05-12T06:08:41.035Z,3.40
2019-05-12T06:11:22.733Z,4.03
2019-05-12T06:13:48.030Z,4.37
2019-05-12T06:16:22.060Z,3.47
2019-05-12T06:18:54.509Z,4.00
2019-05-12T06:21:29.143Z,3.93
2019-05-12T06:24:03.330Z,4.33
2019-05-12T06:26:35.902Z,4.40
2019-05-12T06:29:11.232Z,3.80
2019-05-12T06:31:44.288Z,3.93
2019-05-12T06:34:20.893Z,4.43
2019-05-12T06:36:54.791Z,4.63
2019-05-12T06:39:25.665Z,4.53
2019-05-12T06:42:11.648Z,4.50
2019-05-12T06:44:33.500Z,3.43
2019-05-12T06:47:08.228Z,4.20
2019-05-12T06:49:40.581Z,4.10
2019-05-12T06:52:14.332Z,4.67
2019-05-12T06:54:51.404Z,3.97
2019-05-12T06:57:27.816Z,4.30
2019-05-12T06:59:55.288Z,4.83
2019-05-12T07:02:30.183Z,4.70
2019-05-12T07:05:04.370Z,5.53
2019-05-12T07:07:42.178Z,5.17
2019-05-12T07:10:15.248Z,5.00
2019-05-12T07:12:58.186Z,4.00
2019-05-12T07:15:19.821Z,5.13
2019-05-12T07:18:10.464Z,5.17
2019-05-12T07:20:43.631Z,4.87
2019-05-12T07:23:19.604Z,4.53
2019-05-12T07:25:50.575Z,4.53
2019-05-12T07:28:23.733Z,4.50
2019-05-12T07:30:57.402Z,4.57
2019-05-12T07:33:32.886Z,4.47
2019-05-12T07:36:06.552Z,5.40
2019-05-12T07:38:40.739Z,4.47
2019-05-12T07:41:15.215Z,4.90
2019-05-12T07:43:50.694Z,4.27
2019-05-12T07:46:27.830Z,4.80
2019-05-12T07:48:58.687Z,3.97
2019-05-12T07:51:38.292Z,5.13
2019-05-12T07:54:04.794Z,5.40
2019-05-12T07:56:40.645Z,6.90
2019-05-12T07:59:13.548Z,4.10
2019-05-12T08:01:51.904Z,4.83
2019-05-12T08:04:19.988Z,5.97
2019-05-12T08:06:53.801Z,5.03
2019-05-12T08:09:32.276Z,7.03
2019-05-12T08:12:04.006Z,5.13
2019-05-12T08:14:37.062Z,6.70
2019-05-12T08:17:11.928Z,4.77
2019-05-12T08:19:44.392Z,5.87
2019-05-12T08:22:18.856Z,12.33
2019-05-12T08:24:53.741Z,5.20
2019-05-12T08:27:25.901Z,4.77
2019-05-12T08:30:01.126Z,12.80
2019-05-12T08:32:33.890Z,6.20
2019-05-12T08:35:08.825Z,4.97
2019-05-12T08:37:43.940Z,5.47
2019-05-12T08:40:15.669Z,5.30
2019-05-12T08:42:48.527Z,5.37
2019-05-12T08:45:25.714Z,9.70
2019-05-12T08:47:55.498Z,9.20
2019-05-12T08:50:31.581Z,7.37
2019-05-12T08:53:04.691Z,13.53
2019-05-12T08:55:36.257Z,4.57
2019-05-12T08:58:08.888Z,3.90
2019-05-12T09:00:50.199Z,6.83
2019-05-12T09:03:20.435Z,5.67
2019-05-12T09:05:53.716Z,3.30
2019-05-12T09:08:26.823Z,4.13
2019-05-12T09:10:59.508Z,5.63
2019-05-12T09:13:33.867Z,3.40
2019-05-12T09:16:09.722Z,5.03
2019-05-12T09:18:43.458Z,7.27
2019-05-12T09:21:16.041Z,6.43
2019-05-12T09:23:48.664Z,24.93
2019-05-12T09:26:24.943Z,6.10
2019-05-12T09:28:55.628Z,6.50
2019-05-12T09:31:29.640Z,4.10
2019-05-12T09:34:05.846Z,4.10
2019-05-12T09:36:36.829Z,4.40
2019-05-12T09:39:09.417Z,3.67
2019-05-12T09:41:46.287Z,4.10
2019-05-12T09:44:20.265Z,4.87
2019-05-12T09:46:50.624Z,6.03
2019-05-12T09:49:31.447Z,5.40
2019-05-12T09:51:57.730Z,4.23
2019-05-12T09:54:35.387Z,3.87
2019-05-12T09:57:04.916Z,5.00
2019-05-12T09:59:37.605Z,4.40
2019-05-12T10:02:15.331Z,4.20
2019-05-12T10:04:44.495Z,4.17
2019-05-12T10:07:17.783Z,8.93
2019-05-12T10:09:55.137Z,10.73
2019-05-12T10:12:24.265Z,4.07
2019-05-12T10:14:56.840Z,6.23
2019-05-12T10:17:30.364Z,5.73
2019-05-12T10:20:03.340Z,8.13
2019-05-12T10:22:39.901Z,10.17
2019-05-12T10:25:14.516Z,7.97
2019-05-12T10:27:47.303Z,9.07
2019-05-12T10:30:20.299Z,6.20
2019-05-12T10:32:52.983Z,9.13
2019-05-12T10:35:26.828Z,14.97
2019-05-12T10:38:00.210Z,18.30
2019-05-12T10:40:34.296Z,12.73
2019-05-12T10:43:07.067Z,4.90
2019-05-12T10:45:39.756Z,41.67
2019-05-12T10:48:14.117Z,12.50
2019-05-12T10:50:47.000Z,39.63
2019-05-12T10:53:19.728Z,5.20
2019-05-12T10:55:54.274Z,22.07
2019-05-12T10:58:26.732Z,13.77
2019-05-12T11:01:05.266Z,14.40
2019-05-12T11:03:33.844Z,7.40
2019-05-12T11:06:07.657Z,5.80
2019-05-12T11:08:41.319Z,25.60
2019-05-12T11:11:14.729Z,14.63
2019-05-12T11:13:50.115Z,12.80
2019-05-12T11:16:30.617Z,7.10
2019-05-12T11:19:00.218Z,13.13
2019-05-12T11:21:33.533Z,4.10
2019-05-12T11:24:05.912Z,6.20
2019-05-12T11:26:38.655Z,4.40
2019-05-12T11:29:11.370Z,4.00
2019-05-12T11:31:44.249Z,3.80
2019-05-12T11:34:16.926Z,4.20
2019-05-12T11:36:49.505Z,3.47
2019-05-12T11:39:23.589Z,2.97
2019-05-12T11:41:56.106Z,3.00
2019-05-12T11:44:28.377Z,2.90
2019-05-12T11:47:03.469Z,4.33
2019-05-12T11:49:35.267Z,5.83
2019-05-12T11:52:15.384Z,4.60
2019-05-12T11:54:49.080Z,6.17
2019-05-12T11:57:20.138Z,4.27
2019-05-12T12:00:00.957Z,4.83
2019-05-12T12:02:26.247Z,5.67
2019-05-12T12:04:59.142Z,4.00
2019-05-12T12:07:33.287Z,4.10
2019-05-12T12:10:08.055Z,6.00
2019-05-12T12:12:47.562Z,4.53
2019-05-12T12:15:20.472Z,3.83
2019-05-12T12:17:53.624Z,3.33
2019-05-12T12:20:26.155Z,3.97
2019-05-12T12:23:00.107Z,3.87
2019-05-12T12:25:34.214Z,10.33
2019-05-12T12:28:07.572Z,5.83
2019-05-12T12:30:40.586Z,5.30
2019-05-12T12:33:14.386Z,7.17
2019-05-12T12:35:50.472Z,5.20
2019-05-12T12:38:21.659Z,6.17
2019-05-12T12:40:54.351Z,4.77
2019-05-12T12:43:27.030Z,6.60
2019-05-12T12:46:04.106Z,6.10
2019-05-12T12:48:36.775Z,5.43
2019-05-12T12:51:09.454Z,4.73
2019-05-12T12:53:43.781Z,5.47
2019-05-12T12:56:24.287Z,4.30
2019-05-12T12:58:50.267Z,4.43
2019-05-12T13:01:28.582Z,4.30
2019-05-12T13:03:59.439Z,7.30
2019-05-12T13:06:31.067Z,4.97
2019-05-12T13:09:16.913Z,2.77
2019-05-12T13:11:44.275Z,5.30
2019-05-12T13:14:16.109Z,4.63
2019-05-12T13:16:54.686Z,3.87
2019-05-12T13:19:24.594Z,5.43
2019-05-12T13:21:57.290Z,9.97
2019-05-12T13:24:29.848Z,8.20
2019-05-12T13:27:03.564Z,6.10
2019-05-12T13:29:39.624Z,6.33
2019-05-12T13:32:13.631Z,8.80
2019-05-12T13:34:45.631Z,4.60
2019-05-12T13:37:19.587Z,6.60
2019-05-12T13:39:56.873Z,4.30
2019-05-12T13:42:30.416Z,5.90
2019-05-12T13:45:00.598Z,6.93
2019-05-12T13:47:39.691Z,4.43
2019-05-12T13:50:13.383Z,3.77
2019-05-12T13:52:44.783Z,3.67
2019-05-12T13:55:17.461Z,3.50
2019-05-12T13:57:55.433Z,3.70
2019-05-12T14:00:24.350Z,4.60
2019-05-12T14:03:03.464Z,4.47
2019-05-12T14:05:31.359Z,3.60
2019-05-12T14:08:05.169Z,3.10
2019-05-12T14:10:43.139Z,3.97
2019-05-12T14:13:14.061Z,3.50
2019-05-12T14:15:46.367Z,3.00
2019-05-12T14:18:20.813Z,3.40
2019-05-12T14:20:58.935Z,3.60
2019-05-12T14:23:27.441Z,2.80
2019-05-12T14:26:02.195Z,3.57
2019-05-12T14:28:34.378Z,3.00
2019-05-12T14:31:06.968Z,3.40
2019-05-12T14:33:39.653Z,2.70
2019-05-12T14:36:13.749Z,2.20
2019-05-12T14:38:46.623Z,4.00
2019-05-12T14:41:19.197Z,3.77
2019-05-12T14:43:53.511Z,3.07
2019-05-12T14:46:26.102Z,3.00
2019-05-12T14:48:58.784Z,3.23
2019-05-12T14:51:33.459Z,3.03
2019-05-12T14:54:05.974Z,2.83
2019-05-12T14:56:38.667Z,2.40
2019-05-12T14:59:11.329Z,2.40
2019-05-12T15:01:53.616Z,27.00
2019-05-12T15:04:19.401Z,2.47
2019-05-12T15:06:53.387Z,5.60
2019-05-12T15:09:26.149Z,12.97
2019-05-12T15:11:58.728Z,8.30
2019-05-12T15:14:37.622Z,19.03
2019-05-12T15:17:05.721Z,15.50
2019-05-12T15:19:38.406Z,4.60
2019-05-12T15:22:12.427Z,2.50
2019-05-12T15:24:49.182Z,2.27
2019-05-12T15:27:20.445Z,4.00
2019-05-12T15:29:56.364Z,2.70
2019-05-12T15:32:27.397Z,2.93
2019-05-12T15:35:00.099Z,2.90
2019-05-12T15:37:34.969Z,2.80
2019-05-12T15:40:09.155Z,3.30
2019-05-12T15:42:41.721Z,3.30
2019-05-12T15:45:16.954Z,2.77
2019-05-12T15:47:49.756Z,2.90
2019-05-12T15:50:23.205Z,3.00
2019-05-12T15:52:56.224Z,2.70
2019-05-12T15:55:32.787Z,3.20
2019-05-12T15:58:05.414Z,4.33
2019-05-12T16:00:38.426Z,4.03
2019-05-12T16:03:11.459Z,4.00
2019-05-12T16:05:44.530Z,3.67
2019-05-12T16:08:18.557Z,4.17
2019-05-12T16:10:51.088Z,4.97
2019-05-12T16:13:24.294Z,4.20
2019-05-12T16:16:03.204Z,3.50
2019-05-12T16:18:31.518Z,2.93
2019-05-12T16:21:09.045Z,3.57
2019-05-12T16:23:39.659Z,2.80
2019-05-12T16:26:15.079Z,3.30
2019-05-12T16:28:46.544Z,3.57
2019-05-12T16:31:18.837Z,3.20
2019-05-12T16:33:53.013Z,3.63
2019-05-12T16:36:25.810Z,3.60
2019-05-12T16:39:00.106Z,3.70
2019-05-12T16:41:34.460Z,3.50
2019-05-12T16:44:16.128Z,4.00
2019-05-12T16:46:41.544Z,4.30
2019-05-12T16:49:14.109Z,3.77
2019-05-12T16:51:47.740Z,4.07
2019-05-12T16:54:20.902Z,4.00
2019-05-12T16:56:53.993Z,4.20
2019-05-12T16:59:26.574Z,5.00
2019-05-12T17:02:05.633Z,5.60
2019-05-12T17:04:40.096Z,5.90
2019-05-12T17:07:20.971Z,4.50
2019-05-12T17:10:02.967Z,4.50
2019-05-12T17:12:40.135Z,4.30
2019-05-12T17:15:17.239Z,3.97
2019-05-12T17:17:50.756Z,3.87
2019-05-12T17:20:24.454Z,3.87
2019-05-12T17:22:59.881Z,4.57
2019-05-12T17:25:30.955Z,5.23
2019-05-12T17:28:05.688Z,5.50
2019-05-12T17:30:38.044Z,6.03
2019-05-12T17:33:13.439Z,6.13
2019-05-12T17:35:45.243Z,6.20
2019-05-12T17:38:20.146Z,6.60
2019-05-12T17:40:56.432Z,6.00
2019-05-12T17:43:26.659Z,6.20
2019-05-12T17:46:01.327Z,6.17
2019-05-12T17:48:37.192Z,5.73
2019-05-12T17:51:20.259Z,8.47
2019-05-12T17:53:55.116Z,10.97
2019-05-12T17:56:38.554Z,15.43
2019-05-12T17:59:14.940Z,17.50
2019-05-12T18:01:53.723Z,19.43
2019-05-12T18:04:35.383Z,19.63
2019-05-12T18:07:19.515Z,17.20
2019-05-12T18:10:00.532Z,20.87
2019-05-12T18:12:44.746Z,24.83
2019-05-12T18:15:25.679Z,22.43
2019-05-12T18:20:40.353Z,18.83
2019-05-12T18:23:19.874Z,17.10
2019-05-12T18:26:03.211Z,15.73
2019-05-12T18:28:39.417Z,14.50
2019-05-12T18:31:18.539Z,13.77
2019-05-12T18:33:57.166Z,10.10
2019-05-12T18:36:36.935Z,11.70
2019-05-12T18:39:15.653Z,15.23
2019-05-12T18:41:54.261Z,17.17
2019-05-12T18:44:34.954Z,23.93
2019-05-12T18:47:16.648Z,18.67
2019-05-12T18:49:54.543Z,24.10
2019-05-12T18:52:39.396Z,22.23
2019-05-12T18:55:15.745Z,23.73
2019-05-12T18:58:00.712Z,25.77
2019-05-12T19:00:39.812Z,24.00
2019-05-12T19:03:21.009Z,16.13
2019-05-12T19:06:03.316Z,19.27
2019-05-12T19:08:43.071Z,20.27
2019-05-12T19:11:22.635Z,25.27
2019-05-12T19:13:57.106Z,26.23
2019-05-12T19:16:37.132Z,22.67
2019-05-12T19:19:16.801Z,22.13
2019-05-12T19:21:58.527Z,26.00
2019-05-12T19:24:27.324Z,27.60
2019-05-12T19:27:10.454Z,30.13
2019-05-12T19:29:49.806Z,27.17
2019-05-12T19:32:28.291Z,18.97
2019-05-12T19:35:09.484Z,15.57
2019-05-12T19:37:43.116Z,18.20
2019-05-12T19:40:20.643Z,27.20
2019-05-12T19:43:03.505Z,30.50
2019-05-12T19:45:33.768Z,30.27
2019-05-12T19:48:07.561Z,28.47
2019-05-12T19:50:55.021Z,22.33
2019-05-12T19:53:25.900Z,25.93
2019-05-12T19:56:03.873Z,24.40
2019-05-12T19:58:43.199Z,21.87
2019-05-12T20:01:16.312Z,17.47
2019-05-12T20:03:50.056Z,16.10
2019-05-12T20:06:24.321Z,14.80
2019-05-12T20:09:06.255Z,12.83
2019-05-12T20:11:31.692Z,15.73
2019-05-12T20:14:04.366Z,20.47
2019-05-12T20:16:37.752Z,15.17
2019-05-12T20:19:10.466Z,17.03
2019-05-12T20:21:43.844Z,18.87
2019-05-12T20:24:19.957Z,19.13
2019-05-12T20:26:53.777Z,21.03
2019-05-12T20:29:33.529Z,19.47
2019-05-12T20:32:00.559Z,17.27
2019-05-12T20:34:45.854Z,17.97
2019-05-12T20:37:13.146Z,14.30
2019-05-12T20:39:44.412Z,12.50
2019-05-12T20:42:16.079Z,11.40
2019-05-12T20:44:51.165Z,10.50
2019-05-12T20:47:23.477Z,11.70
2019-05-12T20:49:55.817Z,12.27
2019-05-12T20:52:28.502Z,14.77
2019-05-12T20:55:03.496Z,15.80
2019-05-12T20:57:40.120Z,13.73
2019-05-12T21:00:14.125Z,11.70
2019-05-12T21:02:46.523Z,11.30
2019-05-12T21:05:20.091Z,10.23
2019-05-12T21:07:55.796Z,9.47
2019-05-12T21:10:29.811Z,12.37
2019-05-12T21:13:01.143Z,14.27
2019-05-12T21:15:40.700Z,19.93
2019-05-12T21:18:07.721Z,16.33
2019-05-12T21:20:40.395Z,15.53
2019-05-12T21:23:13.511Z,12.63
2019-05-12T21:25:52.481Z,10.77
2019-05-12T21:28:21.107Z,11.03
2019-05-12T21:30:55.819Z,10.83
2019-05-12T21:33:31.287Z,10.23
2019-05-12T21:36:03.684Z,10.90
2019-05-12T21:38:36.122Z,9.50
2019-05-12T21:41:10.098Z,9.37
2019-05-12T21:43:43.764Z,9.37
2019-05-12T21:46:19.571Z,8.13
2019-05-12T21:48:53.221Z,8.17
2019-05-12T21:51:26.475Z,8.47
2019-05-12T21:53:59.149Z,7.43
2019-05-12T21:56:37.841Z,7.13
2019-05-12T21:59:06.053Z,7.63
2019-05-12T22:01:43.457Z,7.50
2019-05-12T22:04:14.377Z,7.97
2019-05-12T22:06:51.336Z,8.23
2019-05-12T22:09:23.881Z,8.57
2019-05-12T22:11:56.402Z,7.17
2019-05-12T22:14:30.487Z,7.53
2019-05-12T22:17:05.138Z,6.77
2019-05-12T22:19:38.309Z,6.80
2019-05-12T22:22:10.921Z,6.10
2019-05-12T22:24:44.131Z,6.63
2019-05-12T22:27:22.930Z,6.30
2019-05-12T22:29:51.520Z,5.77
2019-05-12T22:32:25.312Z,5.90
2019-05-12T22:34:58.194Z,5.43
2019-05-12T22:37:34.856Z,5.33
2019-05-12T22:40:15.125Z,4.40
2019-05-12T22:42:44.359Z,4.40
2019-05-12T22:45:17.006Z,4.00
2019-05-12T22:47:55.237Z,3.40
2019-05-12T22:50:27.387Z,4.37
2019-05-12T22:52:58.418Z,4.73
2019-05-12T22:55:33.296Z,3.63
2019-05-12T22:58:10.727Z,3.63
2019-05-12T23:00:44.414Z,3.17
2019-05-12T23:03:17.334Z,3.57
2019-05-12T23:05:50.947Z,3.07
2019-05-12T23:08:24.785Z,3.00
2019-05-12T23:10:58.946Z,3.90
2019-05-12T23:13:32.339Z,3.37
2019-05-12T23:16:06.258Z,3.73
2019-05-12T23:18:38.826Z,3.10
2019-05-12T23:21:13.305Z,2.70
2019-05-12T23:23:49.961Z,3.40
2019-05-12T23:26:20.565Z,2.97
2019-05-12T23:28:53.476Z,3.20
2019-05-12T23:31:30.231Z,3.07
2019-05-12T23:34:06.454Z,3.13
2019-05-12T23:36:38.990Z,3.23
2019-05-12T23:39:09.690Z,3.53
2019-05-12T23:41:43.676Z,2.90
2019-05-12T23:44:16.481Z,3.03
2019-05-12T23:46:49.160Z,2.37
2019-05-12T23:49:21.828Z,2.60
2019-05-12T23:51:54.519Z,2.60
2019-05-12T23:54:27.198Z,2.90
2019-05-12T23:57:00.072Z,2.70
2019-05-12T23:59:33.518Z,2.43
